createdAt,value
2023-04-02T00:01:00.906Z,88.84
2023-04-02T00:03:45.209Z,89.00
2023-04-02T00:06:35.120Z,89.14
2023-04-02T00:09:17.263Z,89.36
2023-04-02T00:11:48.748Z,89.20
2023-04-02T00:14:23.142Z,89.35
2023-04-02T00:16:52.721Z,89.93
2023-04-02T00:19:45.498Z,90.17
2023-04-02T00:22:19.314Z,90.37
2023-04-02T00:24:51.901Z,90.40
2023-04-02T00:27:21.347Z,90.07
2023-04-02T00:29:55.079Z,90.15
2023-04-02T00:32:28.639Z,90.70
2023-04-02T00:34:57.833Z,90.49
2023-04-02T00:37:30.094Z,91.32
2023-04-02T00:40:06.360Z,90.61
2023-04-02T00:42:35.934Z,90.93
2023-04-02T00:45:04.928Z,90.75
2023-04-02T00:47:37.413Z,90.55
2023-04-02T00:50:22.081Z,90.22
2023-04-02T00:52:53.317Z,90.76
2023-04-02T00:55:33.565Z,90.79
2023-04-02T00:58:04.404Z,89.95
2023-04-02T01:00:36.202Z,89.86
2023-04-02T01:03:16.726Z,89.79
2023-04-02T01:05:57.503Z,89.75
2023-04-02T01:08:38.566Z,89.74
2023-04-02T01:11:24.603Z,89.59
2023-04-02T01:14:01.850Z,89.54
2023-04-02T01:17:00.652Z,89.41
2023-04-02T01:20:01.954Z,90.17
2023-04-02T01:22:48.292Z,90.02
2023-04-02T01:25:27.014Z,90.31
2023-04-02T01:28:09.584Z,90.64
2023-04-02T01:30:38.000Z,90.70
2023-04-02T01:33:07.269Z,91.31
2023-04-02T01:35:41.472Z,91.64
2023-04-02T01:38:19.291Z,91.34
2023-04-02T01:41:03.980Z,91.16
2023-04-02T01:43:46.679Z,91.51
2023-04-02T01:46:31.972Z,92.23
2023-04-02T01:49:03.110Z,92.08
2023-04-02T01:51:34.247Z,92.56
2023-04-02T01:54:06.827Z,92.68
2023-04-02T01:56:35.641Z,93.88
2023-04-02T01:59:06.086Z,93.19
2023-04-02T02:01:52.016Z,93.53
2023-04-02T02:04:20.544Z,94.10
2023-04-02T02:06:49.842Z,94.19
2023-04-02T02:09:27.164Z,93.95
2023-04-02T02:11:57.539Z,94.42
2023-04-02T02:14:27.792Z,94.42
2023-04-02T02:17:00.201Z,94.94
2023-04-02T02:20:01.553Z,95.26
2023-04-02T02:22:34.168Z,95.22
2023-04-02T02:25:06.574Z,95.38
2023-04-02T02:27:48.717Z,95.41
2023-04-02T02:30:22.644Z,95.91
2023-04-02T02:33:16.823Z,96.96
2023-04-02T02:36:00.920Z,97.27
2023-04-02T02:38:40.797Z,98.42
2023-04-02T02:41:26.837Z,99.31
2023-04-02T02:44:05.011Z,99.92
2023-04-02T02:46:36.000Z,100.00
2023-04-02T02:49:06.098Z,100.00
2023-04-02T02:51:47.437Z,100.00
2023-04-02T02:54:19.887Z,100.00
2023-04-02T02:56:57.242Z,100.00
2023-04-02T02:59:26.445Z,100.00
2023-04-02T03:01:58.103Z,100.00
2023-04-02T03:04:30.603Z,100.00
2023-04-02T03:06:59.139Z,100.00
2023-04-02T03:09:43.145Z,100.00
2023-04-02T03:12:23.945Z,100.00
2023-04-02T03:15:36.760Z,100.00
2023-04-02T03:18:18.248Z,100.00
2023-04-02T03:20:55.990Z,100.00
2023-04-02T03:23:44.437Z,100.00
2023-04-02T03:26:37.803Z,100.00
2023-04-02T03:29:22.774Z,100.00
2023-04-02T03:31:58.050Z,100.00
2023-04-02T03:34:34.641Z,100.00
2023-04-02T03:37:17.530Z,100.00
2023-04-02T03:39:59.939Z,100.00
2023-04-02T03:42:38.037Z,100.00
2023-04-02T03:45:16.161Z,100.00
2023-04-02T03:47:50.549Z,100.00
2023-04-02T03:50:38.396Z,100.00
2023-04-02T03:53:08.798Z,100.00
2023-04-02T03:55:38.785Z,100.00
2023-04-02T03:58:18.133Z,100.00
2023-04-02T04:01:03.527Z,100.00
2023-04-02T04:03:47.188Z,100.00
2023-04-02T04:06:29.701Z,100.00
2023-04-02T04:09:18.966Z,100.00
2023-04-02T04:11:51.657Z,100.00
2023-04-02T04:14:29.861Z,100.00
2023-04-02T04:17:09.947Z,100.00
2023-04-02T04:19:45.546Z,100.00
2023-04-02T04:22:30.312Z,100.00
2023-04-02T04:25:05.913Z,100.00
2023-04-02T04:27:56.743Z,100.00
2023-04-02T04:30:31.172Z,100.00
2023-04-02T04:33:15.410Z,100.00
2023-04-02T04:35:57.488Z,100.00
2023-04-02T04:38:39.703Z,100.00
2023-04-02T04:41:18.657Z,100.00
2023-04-02T04:43:57.093Z,100.00
2023-04-02T04:46:36.000Z,100.00
2023-04-02T04:49:20.002Z,100.00
2023-04-02T04:51:50.394Z,100.00
2023-04-02T04:54:20.101Z,100.00
2023-04-02T04:57:01.482Z,100.00
2023-04-02T04:59:41.470Z,100.00
2023-04-02T05:02:24.682Z,100.00
2023-04-02T05:04:53.389Z,100.00
2023-04-02T05:07:28.356Z,100.00
2023-04-02T05:10:17.425Z,100.00
2023-04-02T05:12:57.260Z,100.00
2023-04-02T05:16:09.810Z,100.00
2023-04-02T05:18:52.319Z,100.00
2023-04-02T05:21:34.422Z,100.00
2023-04-02T05:24:20.974Z,100.00
2023-04-02T05:26:52.074Z,100.00
2023-04-02T05:29:29.616Z,100.00
2023-04-02T05:32:04.204Z,100.00
2023-04-02T05:34:37.319Z,100.00
2023-04-02T05:37:07.260Z,100.00
2023-04-02T05:39:35.955Z,100.00
2023-04-02T05:42:11.163Z,100.00
2023-04-02T05:45:18.236Z,100.00
2023-04-02T05:47:52.146Z,100.00
2023-04-02T05:50:30.928Z,100.00
2023-04-02T05:53:23.144Z,100.00
2023-04-02T05:56:02.410Z,100.00
2023-04-02T05:58:37.178Z,100.00
2023-04-02T06:01:47.394Z,100.00
2023-04-02T06:04:30.069Z,100.00
2023-04-02T06:07:12.320Z,100.00
2023-04-02T06:09:58.044Z,100.00
2023-04-02T06:12:35.625Z,100.00
2023-04-02T06:15:18.827Z,100.00
2023-04-02T06:17:50.855Z,100.00
2023-04-02T06:20:21.306Z,100.00
2023-04-02T06:22:59.762Z,100.00
2023-04-02T06:25:35.434Z,100.00
2023-04-02T06:28:07.161Z,100.00
2023-04-02T06:30:39.373Z,100.00
2023-04-02T06:33:09.124Z,100.00
2023-04-02T06:35:41.108Z,100.00
2023-04-02T06:38:25.724Z,100.00
2023-04-02T06:40:59.017Z,100.00
2023-04-02T06:44:09.437Z,100.00
2023-04-02T06:47:00.166Z,100.00
2023-04-02T06:49:38.014Z,100.00
2023-04-02T06:52:28.410Z,100.00
2023-04-02T06:54:59.887Z,100.00
2023-04-02T06:57:28.004Z,100.00
2023-04-02T06:59:56.170Z,100.00
2023-04-02T07:02:33.383Z,100.00
2023-04-02T07:05:06.379Z,100.00
2023-04-02T07:07:36.945Z,100.00
2023-04-02T07:10:09.435Z,100.00
2023-04-02T07:12:38.913Z,100.00
2023-04-02T07:15:07.608Z,100.00
2023-04-02T07:17:36.452Z,100.00
2023-04-02T07:20:04.748Z,100.00
2023-04-02T07:22:32.664Z,100.00
2023-04-02T07:25:05.321Z,100.00
2023-04-02T07:27:33.420Z,100.00
2023-04-02T07:30:01.409Z,100.00
2023-04-02T07:32:29.415Z,100.00
2023-04-02T07:34:57.502Z,100.00
2023-04-02T07:37:25.574Z,100.00
2023-04-02T07:39:53.537Z,100.00
2023-04-02T07:42:21.662Z,100.00
2023-04-02T07:44:49.709Z,100.00
2023-04-02T07:47:17.961Z,100.00
2023-04-02T07:49:46.131Z,100.00
2023-04-02T07:52:14.064Z,100.00
2023-04-02T07:54:42.002Z,100.00
2023-04-02T07:57:10.009Z,100.00
2023-04-02T07:59:41.507Z,100.00
2023-04-02T08:02:23.212Z,100.00
2023-04-02T08:04:51.797Z,100.00
2023-04-02T08:07:19.745Z,100.00
2023-04-02T08:09:47.644Z,100.00
2023-04-02T08:12:15.832Z,100.00
2023-04-02T08:14:43.816Z,100.00
2023-04-02T08:17:11.748Z,100.00
2023-04-02T08:19:53.765Z,100.00
2023-04-02T08:22:23.030Z,100.00
2023-04-02T08:24:51.020Z,100.00
2023-04-02T08:27:19.107Z,100.00
2023-04-02T08:29:47.188Z,100.00
2023-04-02T08:32:16.337Z,100.00
2023-04-02T08:34:45.481Z,100.00
2023-04-02T08:37:14.132Z,100.00
2023-04-02T08:39:42.221Z,100.00
2023-04-02T08:42:41.443Z,100.00
2023-04-02T08:45:33.902Z,100.00
2023-04-02T08:48:03.571Z,100.00
2023-04-02T08:50:35.128Z,100.00
2023-04-02T08:53:08.164Z,100.00
2023-04-02T08:56:08.616Z,100.00
2023-04-02T08:58:43.023Z,100.00
2023-04-02T09:01:42.629Z,100.00
2023-04-02T09:04:20.927Z,100.00
2023-04-02T09:06:52.512Z,100.00
2023-04-02T09:09:22.537Z,100.00
2023-04-02T09:11:59.103Z,100.00
2023-04-02T09:14:38.560Z,100.00
2023-04-02T09:17:23.310Z,100.00
2023-04-02T09:19:54.218Z,100.00
2023-04-02T09:22:27.384Z,100.00
2023-04-02T09:24:58.054Z,100.00
2023-04-02T09:27:32.222Z,100.00
2023-04-02T09:30:18.427Z,100.00
2023-04-02T09:32:51.887Z,100.00
2023-04-02T09:35:26.509Z,100.00
2023-04-02T09:38:07.305Z,100.00
2023-04-02T09:40:51.650Z,100.00
2023-04-02T09:43:29.085Z,100.00
2023-04-02T09:46:06.542Z,100.00
2023-04-02T09:48:35.819Z,100.00
2023-04-02T09:51:12.714Z,100.00
2023-04-02T09:53:44.734Z,100.00
2023-04-02T09:56:21.879Z,100.00
2023-04-02T09:59:06.522Z,100.00
2023-04-02T10:01:40.033Z,100.00
2023-04-02T10:04:34.753Z,100.00
2023-04-02T10:07:09.595Z,100.00
2023-04-02T10:09:38.540Z,100.00
2023-04-02T10:12:12.545Z,100.00
2023-04-02T10:14:45.681Z,100.00
2023-04-02T10:17:30.932Z,100.00
2023-04-02T10:20:11.576Z,99.60
2023-04-02T10:22:40.461Z,99.91
2023-04-02T10:25:16.287Z,99.91
2023-04-02T10:28:09.117Z,99.21
2023-04-02T10:30:57.178Z,99.59
2023-04-02T10:33:33.192Z,99.59
2023-04-02T10:36:09.040Z,99.95
2023-04-02T10:38:51.413Z,100.00
2023-04-02T10:41:31.222Z,99.76
2023-04-02T10:44:20.278Z,98.03
2023-04-02T10:47:00.994Z,97.18
2023-04-02T10:49:58.231Z,95.89
2023-04-02T10:52:34.799Z,95.35
2023-04-02T10:55:25.943Z,95.02
2023-04-02T10:57:57.281Z,95.47
2023-04-02T11:00:29.062Z,96.07
2023-04-02T11:03:00.268Z,95.88
2023-04-02T11:05:37.597Z,96.04
2023-04-02T11:08:29.985Z,97.08
2023-04-02T11:11:32.391Z,97.59
2023-04-02T11:14:17.686Z,97.69
2023-04-02T11:16:48.323Z,97.17
2023-04-02T11:19:16.704Z,98.02
2023-04-02T11:22:04.364Z,97.71
2023-04-02T11:24:42.355Z,97.80
2023-04-02T11:27:10.499Z,97.75
2023-04-02T11:29:42.725Z,97.07
2023-04-02T11:32:33.775Z,96.02
2023-04-02T11:35:06.501Z,95.66
2023-04-02T11:37:44.788Z,95.70
2023-04-02T11:40:13.982Z,95.35
2023-04-02T11:42:44.136Z,95.50
2023-04-02T11:45:24.130Z,96.31
2023-04-02T11:48:01.427Z,96.52
2023-04-02T11:50:38.830Z,97.00
2023-04-02T11:53:13.598Z,97.57
2023-04-02T11:55:42.702Z,96.71
2023-04-02T11:58:22.935Z,96.44
2023-04-02T12:00:56.931Z,96.58
2023-04-02T12:03:29.863Z,95.64
2023-04-02T12:06:13.524Z,95.67
2023-04-02T12:08:57.914Z,95.54
2023-04-02T12:11:44.796Z,96.02
2023-04-02T12:14:37.729Z,96.90
2023-04-02T12:17:24.225Z,97.94
2023-04-02T12:19:55.417Z,98.02
2023-04-02T12:22:27.891Z,96.94
2023-04-02T12:25:00.475Z,94.16
2023-04-02T12:27:29.851Z,95.97
2023-04-02T12:30:22.370Z,95.30
2023-04-02T12:32:50.487Z,94.71
2023-04-02T12:35:29.516Z,94.10
2023-04-02T12:37:58.293Z,94.26
2023-04-02T12:40:27.301Z,93.83
2023-04-02T12:42:56.106Z,93.36
2023-04-02T12:45:31.160Z,93.75
2023-04-02T12:48:03.160Z,93.13
2023-04-02T12:50:35.400Z,91.90
2023-04-02T12:53:03.732Z,91.03
2023-04-02T12:55:33.729Z,90.46
2023-04-02T12:58:01.673Z,89.95
2023-04-02T13:00:31.889Z,89.13
2023-04-02T13:03:05.849Z,86.29
2023-04-02T13:05:54.998Z,85.72
2023-04-02T13:08:42.922Z,85.13
2023-04-02T13:11:10.800Z,85.16
2023-04-02T13:13:41.023Z,85.20
2023-04-02T13:16:15.059Z,85.29
2023-04-02T13:18:45.470Z,85.66
2023-04-02T13:21:16.451Z,86.40
2023-04-02T13:23:46.179Z,85.74
2023-04-02T13:26:17.508Z,85.69
2023-04-02T13:29:19.526Z,85.90
2023-04-02T13:31:48.404Z,86.91
2023-04-02T13:34:17.920Z,87.80
2023-04-02T13:36:47.168Z,88.18
2023-04-02T13:39:19.392Z,87.66
2023-04-02T13:41:52.121Z,87.88
2023-04-02T13:44:26.023Z,87.96
2023-04-02T13:46:55.054Z,88.23
2023-04-02T13:49:25.137Z,87.19
2023-04-02T13:52:00.474Z,86.21
2023-04-02T13:54:53.038Z,85.10
2023-04-02T13:57:21.455Z,83.62
2023-04-02T13:59:49.490Z,83.58
2023-04-02T14:02:20.490Z,82.84
2023-04-02T14:04:54.759Z,83.07
2023-04-02T14:07:50.270Z,83.19
2023-04-02T14:10:22.198Z,82.97
2023-04-02T14:13:05.032Z,82.75
2023-04-02T14:15:48.871Z,81.49
2023-04-02T14:18:28.922Z,80.90
2023-04-02T14:21:29.215Z,80.30
2023-04-02T14:24:18.926Z,78.39
2023-04-02T14:27:21.889Z,79.22
2023-04-02T14:30:07.782Z,80.19
2023-04-02T14:32:59.197Z,80.08
2023-04-02T14:35:46.340Z,79.06
2023-04-02T14:38:37.155Z,79.23
2023-04-02T14:41:13.969Z,78.21
2023-04-02T14:43:50.697Z,78.01
2023-04-02T14:46:18.597Z,78.61
2023-04-02T14:48:54.526Z,78.14
2023-04-02T14:51:26.568Z,78.28
2023-04-02T14:54:04.380Z,78.62
2023-04-02T14:56:39.705Z,78.69
2023-04-02T14:59:38.615Z,78.46
2023-04-02T15:02:22.290Z,77.50
2023-04-02T15:05:02.857Z,76.10
2023-04-02T15:07:41.766Z,76.11
2023-04-02T15:10:44.572Z,76.47
2023-04-02T15:13:21.384Z,76.81
2023-04-02T15:15:56.594Z,76.79
2023-04-02T15:18:25.645Z,76.74
2023-04-02T15:21:16.759Z,76.26
2023-04-02T15:24:27.321Z,74.78
2023-04-02T15:26:58.274Z,73.43
2023-04-02T15:29:29.728Z,72.23
2023-04-02T15:32:32.110Z,70.43
2023-04-02T15:35:11.010Z,70.05
2023-04-02T15:38:03.725Z,70.46
2023-04-02T15:41:02.915Z,68.19
2023-04-02T15:43:41.118Z,68.63
2023-04-02T15:46:08.960Z,66.51
2023-04-02T15:49:00.700Z,64.88
2023-04-02T15:51:31.403Z,66.12
2023-04-02T15:54:22.050Z,66.14
2023-04-02T15:57:12.411Z,64.82
2023-04-02T16:00:09.000Z,64.58
2023-04-02T16:02:42.882Z,65.45
2023-04-02T16:05:38.648Z,66.31
2023-04-02T16:08:13.325Z,64.93
2023-04-02T16:10:43.051Z,65.26
2023-04-02T16:13:19.461Z,65.68
2023-04-02T16:16:27.939Z,66.57
2023-04-02T16:19:22.858Z,66.90
2023-04-02T16:22:01.777Z,67.16
2023-04-02T16:24:29.647Z,66.78
2023-04-02T16:27:21.413Z,66.76
2023-04-02T16:29:55.814Z,67.10
2023-04-02T16:32:43.750Z,66.66
2023-04-02T16:38:14.780Z,67.36
2023-04-02T16:41:19.753Z,68.05
2023-04-02T16:44:05.891Z,69.07
2023-04-02T16:46:53.289Z,69.86
2023-04-02T16:49:36.310Z,69.98
2023-04-02T16:52:08.388Z,70.64
2023-04-02T16:54:51.512Z,70.70
2023-04-02T16:57:40.914Z,71.11
2023-04-02T17:00:34.404Z,71.15
2023-04-02T17:03:21.257Z,71.38
2023-04-02T17:06:02.187Z,71.48
2023-04-02T17:08:38.643Z,71.76
2023-04-02T17:11:17.377Z,72.37
2023-04-02T17:14:06.410Z,72.47
2023-04-02T17:16:46.598Z,71.91
2023-04-02T17:19:16.898Z,71.92
2023-04-02T17:21:48.083Z,72.72
2023-04-02T17:24:38.035Z,72.58
2023-04-02T17:27:30.416Z,73.01
2023-04-02T17:30:07.912Z,72.98
2023-04-02T17:32:37.051Z,73.17
2023-04-02T17:35:32.147Z,73.81
2023-04-02T17:38:31.401Z,74.71
2023-04-02T17:41:21.192Z,75.16
2023-04-02T17:44:05.316Z,75.31
2023-04-02T17:46:48.872Z,75.66
2023-04-02T17:49:36.804Z,75.61
2023-04-02T17:52:26.322Z,76.09
2023-04-02T17:55:40.694Z,77.08
2023-04-02T17:58:19.421Z,78.53
2023-04-02T18:01:27.925Z,78.89
2023-04-02T18:04:16.919Z,79.30
2023-04-02T18:07:06.217Z,79.93
2023-04-02T18:09:37.335Z,80.07
2023-04-02T18:12:33.438Z,80.32
2023-04-02T18:15:07.051Z,80.63
2023-04-02T18:17:58.557Z,80.42
2023-04-02T18:20:45.987Z,80.10
2023-04-02T18:23:32.623Z,79.66
2023-04-02T18:26:18.859Z,79.06
2023-04-02T18:29:24.354Z,78.73
2023-04-02T18:32:20.357Z,78.60
2023-04-02T18:34:48.599Z,78.72
2023-04-02T18:37:57.830Z,78.85
2023-04-02T18:40:38.835Z,79.54
2023-04-02T18:43:33.991Z,80.75
2023-04-02T18:46:25.622Z,81.87
2023-04-02T18:49:23.505Z,82.91
2023-04-02T18:52:09.615Z,83.99
2023-04-02T18:54:46.649Z,84.63
2023-04-02T18:57:23.895Z,85.57
2023-04-02T19:00:02.092Z,85.90
2023-04-02T19:02:42.905Z,86.34
2023-04-02T19:05:26.575Z,86.92
2023-04-02T19:08:19.318Z,87.78
2023-04-02T19:10:54.934Z,88.35
2023-04-02T19:13:22.996Z,88.63
2023-04-02T19:16:17.877Z,89.46
2023-04-02T19:19:11.500Z,90.00
2023-04-02T19:21:54.266Z,90.56
2023-04-02T19:24:41.615Z,90.78
2023-04-02T19:27:27.360Z,91.30
2023-04-02T19:30:26.372Z,91.41
2023-04-02T19:33:15.811Z,91.58
2023-04-02T19:35:53.875Z,91.78
2023-04-02T19:38:54.296Z,91.77
2023-04-02T19:41:47.918Z,91.80
2023-04-02T19:44:16.986Z,91.99
2023-04-02T19:46:45.867Z,91.83
2023-04-02T19:49:33.932Z,90.95
2023-04-02T19:52:01.968Z,90.43
2023-04-02T19:54:30.107Z,89.58
2023-04-02T19:56:58.351Z,88.09
2023-04-02T19:59:26.432Z,86.97
2023-04-02T20:01:54.493Z,86.39
2023-04-02T20:04:22.306Z,85.95
2023-04-02T20:06:50.556Z,86.47
2023-04-02T20:09:18.513Z,85.82
2023-04-02T20:11:46.718Z,84.88
2023-04-02T20:14:14.662Z,83.73
2023-04-02T20:16:44.509Z,83.75
2023-04-02T20:19:13.681Z,83.54
2023-04-02T20:21:41.630Z,83.40
2023-04-02T20:24:09.667Z,83.35
2023-04-02T20:26:37.654Z,83.45
2023-04-02T20:29:05.898Z,83.61
2023-04-02T20:31:34.299Z,83.85
2023-04-02T20:34:05.688Z,83.98
2023-04-02T20:36:34.041Z,83.73
2023-04-02T20:39:02.223Z,84.14
2023-04-02T20:41:30.380Z,84.47
2023-04-02T20:43:58.726Z,84.87
2023-04-02T20:46:29.248Z,85.08
2023-04-02T20:48:57.762Z,85.03
2023-04-02T20:51:25.974Z,84.94
2023-04-02T20:53:57.893Z,85.23
2023-04-02T20:56:28.149Z,85.59
2023-04-02T20:58:56.370Z,85.47
2023-04-02T21:01:26.895Z,85.90
2023-04-02T21:04:02.817Z,86.20
2023-04-02T21:06:34.105Z,86.79
2023-04-02T21:09:08.202Z,87.20
2023-04-02T21:11:37.451Z,87.43
2023-04-02T21:14:05.570Z,87.26
2023-04-02T21:16:34.360Z,87.47
2023-04-02T21:19:05.915Z,87.35
2023-04-02T21:21:36.291Z,87.63
2023-04-02T21:24:06.751Z,87.78
2023-04-02T21:26:37.791Z,87.65
2023-04-02T21:29:06.284Z,87.88
2023-04-02T21:31:37.841Z,87.97
2023-04-02T21:34:07.503Z,87.44
2023-04-02T21:36:39.578Z,87.52
2023-04-02T21:39:10.146Z,87.58
2023-04-02T21:41:41.432Z,87.57
2023-04-02T21:44:13.996Z,87.66
2023-04-02T21:46:44.145Z,87.68
2023-04-02T21:49:17.351Z,87.78
2023-04-02T21:51:46.889Z,87.79
2023-04-02T21:54:15.650Z,87.94
2023-04-02T21:56:45.993Z,87.81
2023-04-02T21:59:15.833Z,87.59
2023-04-02T22:01:47.471Z,87.41
2023-04-02T22:04:22.263Z,87.57
2023-04-02T22:06:52.368Z,87.90
2023-04-02T22:09:23.535Z,88.47
2023-04-02T22:11:54.697Z,88.18
2023-04-02T22:14:23.388Z,87.61
2023-04-02T22:16:52.161Z,87.72
2023-04-02T22:19:21.424Z,87.96
2023-04-02T22:21:50.174Z,88.00
2023-04-02T22:24:18.974Z,87.84
2023-04-02T22:26:47.045Z,87.70
2023-04-02T22:29:16.042Z,88.04
2023-04-02T22:31:44.584Z,88.27
2023-04-02T22:34:12.745Z,88.65
2023-04-02T22:36:41.439Z,88.82
2023-04-02T22:39:12.138Z,88.67
2023-04-02T22:41:40.564Z,88.91
2023-04-02T22:44:14.189Z,88.86
2023-04-02T22:46:42.331Z,88.91
2023-04-02T22:49:11.797Z,88.58
2023-04-02T22:51:39.816Z,89.00
2023-04-02T22:54:07.772Z,89.12
2023-04-02T22:56:37.572Z,89.15
2023-04-02T22:59:05.751Z,89.64
2023-04-02T23:01:35.511Z,90.17
2023-04-02T23:04:05.223Z,90.19
2023-04-02T23:06:33.299Z,90.35
2023-04-02T23:09:01.149Z,90.38
2023-04-02T23:11:29.187Z,90.07
2023-04-02T23:13:58.448Z,89.85
2023-04-02T23:16:28.999Z,89.87
2023-04-02T23:18:57.372Z,90.03
2023-04-02T23:21:26.255Z,90.41
2023-04-02T23:23:54.940Z,90.01
2023-04-02T23:26:29.343Z,89.91
2023-04-02T23:28:59.331Z,90.25
2023-04-02T23:31:28.169Z,90.23
2023-04-02T23:33:56.183Z,89.96
2023-04-02T23:36:27.345Z,90.11
2023-04-02T23:38:56.842Z,90.20
2023-04-02T23:41:27.193Z,89.93
2023-04-02T23:43:57.004Z,89.61
2023-04-02T23:46:25.964Z,89.16
2023-04-02T23:48:55.000Z,89.10
2023-04-02T23:51:24.071Z,89.37
2023-04-02T23:53:53.666Z,89.41
2023-04-02T23:56:22.487Z,89.30
2023-04-02T23:58:51.390Z,89.59
